Monday, August 21, 2017, 7:51 AM EDT

KNHK, Nas Patuxent River Md

Location: Patuxent River, MD, United States Lat: 38.3
Local Time: 7:51 AM EDT (11:51 GMT) Lon: -76.4
Time Zone: US/Eastern Elev: 39 ft

Show me the last for .
Show Decoded

2017-08-21 06:52 METAR KNHK 211052Z 17004KT 10SM FEW032 SCT110 BKN280 22/22 A3020 RMK AO2 SLP226
                 CB DSNT NW T02220222 VISNO RY24 $ =
2017-08-21 05:52 METAR KNHK 210952Z 00000KT 10SM FEW120 21/21 A3019 RMK AO2 SLP224 T02110211
                 VISNO RY24 $ =
2017-08-21 04:52 METAR KNHK 210852Z AUTO 00000KT 10SM BKN110 21/21 A3018 RMK AO2 SLP220 T02060206
                 55000 VISNO RY24 $ =
2017-08-21 03:52 METAR KNHK 210752Z AUTO 24005KT 10SM CLR 21/21 A3017 RMK AO2 SLP217 T02060206
                 VISNO RY24 $ =
2017-08-21 02:52 METAR KNHK 210652Z AUTO 00000KT 10SM CLR 20/20 A3018 RMK AO2 SLP219 T02000200
                 VISNO RY24 $ =
2017-08-21 01:52 METAR KNHK 210552Z AUTO 00000KT 10SM FEW110 21/20 A3018 RMK AO2 SLP220 T02060200
                 10244 20200 50001 VISNO RY24 $ =
2017-08-21 00:52 METAR KNHK 210452Z AUTO 19003KT 10SM CLR 22/20 A3019 RMK AO2 SLP222 T02170200
                 402830200 VISNO RY24 $ =
2017-08-20 23:52 METAR KNHK 210352Z AUTO 00000KT 10SM CLR 21/20 A3019 RMK AO2 SLP223 T02060200
                 VISNO RY24 $ =
2017-08-20 22:52 METAR KNHK 210252Z AUTO 18003KT 10SM CLR 21/20 A3018 RMK AO2 SLP218 T02110200
                 51017 VISNO RY24 $ =
2017-08-20 21:52 METAR KNHK 210152Z AUTO 00000KT 10SM CLR 22/21 A3016 RMK AO2 SLP215 T02170206
                 VISNO RY24 $ =
2017-08-20 20:52 METAR KNHK 210052Z AUTO 19004KT 10SM CLR 23/21 A3015 RMK AO2 SLP208 T02330206
                 VISNO RY24 $ =
2017-08-20 19:52 METAR KNHK 202352Z AUTO 18003KT 10SM CLR 24/21 A3013 RMK AO2 SLP201 T02440206
                 10283 20244 53007 VISNO RY24 $ =
2017-08-20 18:52 METAR KNHK 202252Z AUTO 00000KT 10SM CLR 27/21 A3012 RMK AO2 SLP198 T02670211
                 VISNO RY24 $ =
2017-08-20 17:52 METAR KNHK 202152Z 09004KT 10SM FEW045 27/21 A3011 RMK AO2 SLP196 T02720206
                 VISNO RY24 $ =
2017-08-20 16:52 METAR KNHK 202052Z 08004KT 10SM FEW040 28/20 A3010 RMK AO2 SLP194 T02780200
                 55009 VISNO RY24 $ =
2017-08-20 15:52 METAR KNHK 201952Z 05005KT 10SM FEW035 FEW300 28/21 A3010 RMK AO2 SLP194
                 T02780206 VISNO RY24 $ =
2017-08-20 14:52 METAR KNHK 201852Z 04007KT 10SM FEW030 28/21 A3012 RMK AO2 SLP199 T02780206 $ =
2017-08-20 13:52 METAR KNHK 201752Z 04006KT 10SM CLR 28/19 A3013 RMK AO2 SLP204 T02780189 10278
                 20233 51006 $ =
2017-08-20 12:52 METAR KNHK 201652Z 36004KT 10SM FEW025 28/18 A3013 RMK AO2 SLP203 T02780183 $ =
2017-08-20 11:52 METAR KNHK 201552Z 34007KT 10SM FEW020 27/19 A3013 RMK AO2 SLP202 T02720189 $ =
2017-08-20 10:52 METAR KNHK 201452Z 01008KT 10SM CLR 27/19 A3012 RMK AO2 SLP198 T02670194 51015 $
                 =
2017-08-20 09:52 METAR KNHK 201352Z 02010KT 10SM FEW300 26/21 A3011 RMK AO2 SLP196 T02610206 $ =
2017-08-20 08:52 METAR KNHK 201252Z 36006KT 10SM FEW300 25/21 A3010 RMK AO2 SLP192 T02500206 $ =
2017-08-20 07:52 METAR KNHK 201152Z 33007KT 10SM FEW300 23/20 A3007 RMK AO2 SLP183 T02330200
                 10233 20206 51020 $ =

Support USWX by starting your Amazon purchase here.